N510MV KCMI-KCKB
Flight info
| Callsign | N510MV |
|---|---|
| Flight time | N/A |
| Altitude | FL350 |
| Route | DCT TTH DCT TOWER DCT XUB DCT JPU DCT CKB DCT |
| Aircraft | C510/L-VGDW/C |
Departure
| Time | 2026-05-04 07:17 |
|---|---|
| Airport | University of Illinois Willard Airport (KCMI) |
Arrival
| Time | N/A |
|---|---|
| Airport | North Central West Virginia Airport (KCKB) |
| Time | Latitude | Longitude | Altitude | Speed | Heading |
|---|---|---|---|---|---|
| 2026-05-04 07:01 | 40.03957 | -88.27129 | 731 ft | 0 kts | 47° |
| 2026-05-04 07:13 | 40.03976 | -88.27133 | 731 ft | 4 kts | 292° |
| 2026-05-04 07:13 | 40.03977 | -88.27166 | 731 ft | 4 kts | 269° |
| 2026-05-04 07:14 | 40.04162 | -88.27183 | 731 ft | 12 kts | 41° |
| 2026-05-04 07:14 | 40.04223 | -88.27115 | 731 ft | 10 kts | 40° |
| 2026-05-04 07:15 | 40.04268 | -88.27065 | 731 ft | 8 kts | 40° |
| 2026-05-04 07:15 | 40.04315 | -88.27012 | 731 ft | 12 kts | 41° |
| 2026-05-04 07:15 | 40.04366 | -88.26956 | 731 ft | 8 kts | 28° |
| 2026-05-04 07:15 | 40.04411 | -88.26951 | 731 ft | 6 kts | 356° |
| 2026-05-04 07:16 | 40.04438 | -88.26954 | 730 ft | 4 kts | 355° |
| 2026-05-04 07:16 | 40.04486 | -88.26970 | 731 ft | 7 kts | 319° |
| 2026-05-04 07:16 | 40.04509 | -88.27012 | 731 ft | 6 kts | 287° |
| 2026-05-04 07:16 | 40.04492 | -88.27058 | 731 ft | 8 kts | 220° |
| 2026-05-04 07:17 | 40.04300 | -88.27274 | 731 ft | 74 kts | 222° |
| 2026-05-04 07:17 | 40.03803 | -88.27852 | 788 ft | 115 kts | 221° |
| 2026-05-04 07:17 | 40.03100 | -88.28633 | 1076 ft | 151 kts | 218° |
| 2026-05-04 07:17 | 40.02257 | -88.29538 | 1603 ft | 164 kts | 219° |
| 2026-05-04 07:18 | 40.01398 | -88.30469 | 2361 ft | 164 kts | 220° |
| 2026-05-04 07:18 | 40.00488 | -88.31370 | 2981 ft | 171 kts | 208° |
| 2026-05-04 07:18 | 39.99285 | -88.31443 | 3544 ft | 186 kts | 160° |
| 2026-05-04 07:18 | 39.98351 | -88.30308 | 4160 ft | 194 kts | 115° |
| 2026-05-04 07:19 | 39.98260 | -88.28623 | 4772 ft | 195 kts | 72° |
| 2026-05-04 07:19 | 39.98710 | -88.26969 | 5372 ft | 199 kts | 67° |
| 2026-05-04 07:19 | 39.99183 | -88.25272 | 5966 ft | 203 kts | 66° |
| 2026-05-04 07:19 | 39.99662 | -88.23518 | 6545 ft | 208 kts | 67° |
| 2026-05-04 07:20 | 39.99926 | -88.21675 | 7115 ft | 215 kts | 86° |
| 2026-05-04 07:20 | 39.99955 | -88.19724 | 7674 ft | 219 kts | 86° |
| 2026-05-04 07:20 | 39.99983 | -88.17735 | 8206 ft | 225 kts | 86° |
| 2026-05-04 07:20 | 39.99985 | -88.15699 | 8722 ft | 230 kts | 95° |
| 2026-05-04 07:22 | 39.93346 | -88.03627 | 12246 ft | 245 kts | 143° |
| 2026-05-04 07:22 | 39.92088 | -88.02149 | 12720 ft | 248 kts | 143° |
| 2026-05-04 07:23 | 39.90824 | -88.00675 | 13209 ft | 249 kts | 143° |
| 2026-05-04 07:23 | 39.89537 | -87.99186 | 13662 ft | 252 kts | 143° |
| 2026-05-04 07:23 | 39.88228 | -87.97672 | 14104 ft | 255 kts | 143° |
| 2026-05-04 07:23 | 39.86967 | -87.96078 | 14532 ft | 260 kts | 128° |
| 2026-05-04 07:24 | 39.86029 | -87.94134 | 14982 ft | 261 kts | 123° |
| 2026-05-04 07:24 | 39.85095 | -87.92296 | 15378 ft | 263 kts | 125° |
| 2026-05-04 07:24 | 39.84141 | -87.90473 | 15768 ft | 265 kts | 126° |
| 2026-05-04 07:24 | 39.83134 | -87.88575 | 16174 ft | 267 kts | 126° |
| 2026-05-04 07:25 | 39.82095 | -87.86623 | 16607 ft | 268 kts | 126° |
| 2026-05-04 07:26 | 39.74870 | -87.73089 | 19304 ft | 275 kts | 125° |
| 2026-05-04 07:27 | 39.73788 | -87.71071 | 19681 ft | 276 kts | 126° |
| 2026-05-04 07:27 | 39.72720 | -87.69067 | 20033 ft | 277 kts | 126° |
| 2026-05-04 07:27 | 39.71643 | -87.67064 | 20384 ft | 278 kts | 126° |
| 2026-05-04 07:27 | 39.70577 | -87.65072 | 20721 ft | 279 kts | 126° |
| 2026-05-04 07:28 | 39.69493 | -87.63052 | 21091 ft | 279 kts | 126° |
| 2026-05-04 07:28 | 39.68403 | -87.61026 | 21439 ft | 280 kts | 126° |
| 2026-05-04 07:28 | 39.67319 | -87.59009 | 21750 ft | 282 kts | 126° |
| 2026-05-04 07:28 | 39.66225 | -87.56975 | 22082 ft | 282 kts | 126° |
| 2026-05-04 07:29 | 39.65128 | -87.54935 | 22399 ft | 284 kts | 126° |
| 2026-05-04 07:29 | 39.64024 | -87.52880 | 22702 ft | 285 kts | 126° |
| 2026-05-04 07:29 | 39.62923 | -87.50839 | 23032 ft | 286 kts | 126° |
| 2026-05-04 07:29 | 39.61805 | -87.48766 | 23351 ft | 286 kts | 126° |
| 2026-05-04 07:30 | 39.60710 | -87.46739 | 23657 ft | 287 kts | 126° |
| 2026-05-04 07:30 | 39.59588 | -87.44653 | 23957 ft | 288 kts | 127° |
| 2026-05-04 07:30 | 39.58471 | -87.42581 | 24230 ft | 290 kts | 127° |
| 2026-05-04 07:30 | 39.57334 | -87.40485 | 24514 ft | 292 kts | 127° |
| 2026-05-04 07:31 | 39.56199 | -87.38382 | 24759 ft | 294 kts | 127° |
| 2026-05-04 07:31 | 39.55055 | -87.36262 | 25034 ft | 296 kts | 127° |
| 2026-05-04 07:33 | 39.48822 | -87.20697 | 26685 ft | 305 kts | 87° |
| 2026-05-04 07:33 | 39.48947 | -87.18050 | 26944 ft | 303 kts | 81° |
| 2026-05-04 07:33 | 39.49084 | -87.15424 | 27155 ft | 306 kts | 83° |
| 2026-05-04 07:33 | 39.49188 | -87.12755 | 27415 ft | 306 kts | 84° |
| 2026-05-04 07:34 | 39.49264 | -87.10315 | 27620 ft | 308 kts | 84° |
| 2026-05-04 07:34 | 39.49332 | -87.07744 | 27814 ft | 310 kts | 84° |
| 2026-05-04 07:34 | 39.49401 | -87.05114 | 28012 ft | 311 kts | 84° |
| 2026-05-04 07:34 | 39.49466 | -87.02415 | 28254 ft | 312 kts | 84° |
| 2026-05-04 07:35 | 39.49535 | -86.99736 | 28412 ft | 315 kts | 84° |
| 2026-05-04 07:35 | 39.49601 | -86.97011 | 28622 ft | 316 kts | 84° |
| 2026-05-04 07:35 | 39.49668 | -86.94327 | 28850 ft | 316 kts | 85° |
| 2026-05-04 07:35 | 39.49731 | -86.91580 | 29100 ft | 315 kts | 85° |
| 2026-05-04 07:36 | 39.49791 | -86.88980 | 29298 ft | 316 kts | 85° |
| 2026-05-04 07:36 | 39.49857 | -86.86218 | 29492 ft | 318 kts | 85° |
| 2026-05-04 07:38 | 39.50277 | -86.67165 | 30973 ft | 317 kts | 84° |
| 2026-05-04 07:38 | 39.50336 | -86.64424 | 31157 ft | 318 kts | 84° |
| 2026-05-04 07:38 | 39.50394 | -86.61777 | 31296 ft | 320 kts | 84° |
| 2026-05-04 07:38 | 39.50453 | -86.58981 | 31463 ft | 321 kts | 84° |
| 2026-05-04 07:39 | 39.50510 | -86.56242 | 31668 ft | 320 kts | 84° |
| 2026-05-04 07:39 | 39.50562 | -86.53474 | 31866 ft | 319 kts | 84° |
| 2026-05-04 07:39 | 39.50621 | -86.50770 | 31997 ft | 321 kts | 84° |
| 2026-05-04 07:39 | 39.50674 | -86.47979 | 32168 ft | 321 kts | 84° |
| 2026-05-04 07:40 | 39.50727 | -86.45229 | 32366 ft | 320 kts | 84° |
| 2026-05-04 07:40 | 39.50782 | -86.42481 | 32540 ft | 320 kts | 84° |
| 2026-05-04 07:40 | 39.50834 | -86.39772 | 32683 ft | 321 kts | 83° |
| 2026-05-04 07:40 | 39.50887 | -86.36981 | 32869 ft | 320 kts | 84° |
| 2026-05-04 07:41 | 39.50943 | -86.34232 | 32986 ft | 322 kts | 84° |
| 2026-05-04 07:41 | 39.50990 | -86.31475 | 33130 ft | 322 kts | 84° |
| 2026-05-04 07:41 | 39.51043 | -86.28726 | 33286 ft | 321 kts | 84° |
| 2026-05-04 07:41 | 39.51090 | -86.26027 | 33431 ft | 320 kts | 84° |
| 2026-05-04 07:42 | 39.51133 | -86.23530 | 33545 ft | 321 kts | 84° |
| 2026-05-04 07:42 | 39.51177 | -86.21060 | 33645 ft | 321 kts | 84° |
| 2026-05-04 07:42 | 39.51225 | -86.18527 | 33756 ft | 322 kts | 84° |
| 2026-05-04 07:42 | 39.51270 | -86.15823 | 33899 ft | 322 kts | 84° |
| 2026-05-04 07:43 | 39.51313 | -86.13103 | 34008 ft | 322 kts | 84° |
| 2026-05-04 07:43 | 39.51362 | -86.10301 | 34128 ft | 323 kts | 83° |
| 2026-05-04 07:43 | 39.51406 | -86.07539 | 34249 ft | 322 kts | 83° |
| 2026-05-04 07:43 | 39.51447 | -86.05033 | 34392 ft | 321 kts | 83° |
| 2026-05-04 07:44 | 39.51527 | -86.00074 | 34635 ft | 319 kts | 83° |
| 2026-05-04 07:44 | 39.51607 | -85.94787 | 34768 ft | 320 kts | 83° |
| 2026-05-04 07:45 | 39.51692 | -85.89359 | 34864 ft | 321 kts | 83° |
| 2026-05-04 07:45 | 39.51776 | -85.83859 | 34881 ft | 327 kts | 83° |
| 2026-05-04 07:46 | 39.51852 | -85.78212 | 34886 ft | 334 kts | 84° |
| 2026-05-04 07:46 | 39.51930 | -85.72469 | 34887 ft | 340 kts | 83° |
| 2026-05-04 07:47 | 39.52011 | -85.66608 | 34882 ft | 346 kts | 84° |
| 2026-05-04 07:49 | 39.52295 | -85.42160 | 34887 ft | 369 kts | 84° |
| 2026-05-04 07:49 | 39.52366 | -85.35827 | 34890 ft | 372 kts | 84° |
| 2026-05-04 07:50 | 39.52428 | -85.29476 | 34876 ft | 375 kts | 85° |
| 2026-05-04 07:50 | 39.52485 | -85.23275 | 34878 ft | 377 kts | 85° |
| 2026-05-04 07:51 | 39.52539 | -85.17305 | 34885 ft | 378 kts | 85° |
| 2026-05-04 07:51 | 39.52591 | -85.10961 | 34886 ft | 380 kts | 85° |
| 2026-05-04 07:52 | 39.52641 | -85.04555 | 34885 ft | 381 kts | 85° |
| 2026-05-04 07:52 | 39.52686 | -84.98389 | 34882 ft | 381 kts | 84° |
| 2026-05-04 07:54 | 39.52842 | -84.72217 | 34907 ft | 383 kts | 85° |
| 2026-05-04 07:55 | 39.52870 | -84.65687 | 34912 ft | 382 kts | 85° |
| 2026-05-04 07:55 | 39.52901 | -84.59202 | 34915 ft | 383 kts | 84° |
| 2026-05-04 07:56 | 39.52939 | -84.52641 | 34914 ft | 383 kts | 84° |
| 2026-05-04 07:56 | 39.52970 | -84.46084 | 34913 ft | 384 kts | 84° |
| 2026-05-04 07:57 | 39.52995 | -84.39502 | 34918 ft | 384 kts | 84° |
| 2026-05-04 07:57 | 39.53024 | -84.32980 | 34902 ft | 384 kts | 85° |
| 2026-05-04 07:58 | 39.53042 | -84.26753 | 34915 ft | 383 kts | 85° |
| 2026-05-04 07:58 | 39.53056 | -84.20630 | 34908 ft | 383 kts | 85° |
| 2026-05-04 07:59 | 39.53067 | -84.14536 | 34909 ft | 382 kts | 85° |
| 2026-05-04 07:59 | 39.53077 | -84.08034 | 34916 ft | 382 kts | 85° |
| 2026-05-04 08:00 | 39.53081 | -84.01556 | 34916 ft | 382 kts | 85° |
| 2026-05-04 08:02 | 39.53073 | -83.75963 | 34926 ft | 382 kts | 85° |
| 2026-05-04 08:02 | 39.53058 | -83.69463 | 34925 ft | 382 kts | 85° |
| 2026-05-04 08:03 | 39.53044 | -83.62939 | 34927 ft | 382 kts | 85° |
| 2026-05-04 08:03 | 39.53025 | -83.56417 | 34924 ft | 382 kts | 85° |
| 2026-05-04 08:04 | 39.53004 | -83.50019 | 34926 ft | 382 kts | 85° |
| 2026-05-04 08:04 | 39.52978 | -83.43761 | 34929 ft | 382 kts | 85° |
| 2026-05-04 08:05 | 39.52947 | -83.37191 | 34928 ft | 382 kts | 85° |
| 2026-05-04 08:05 | 39.52916 | -83.30657 | 34920 ft | 382 kts | 86° |
| 2026-05-04 08:06 | 39.52877 | -83.24224 | 34922 ft | 381 kts | 86° |
| 2026-05-04 08:06 | 39.52840 | -83.18284 | 34925 ft | 380 kts | 86° |
| 2026-05-04 08:08 | 39.52537 | -82.93091 | 34946 ft | 381 kts | 91° |
| 2026-05-04 08:11 | 39.51072 | -82.64080 | 34927 ft | 381 kts | 90° |
| 2026-05-04 08:11 | 39.50590 | -82.54413 | 34819 ft | 386 kts | 90° |
| 2026-05-04 08:12 | 39.50419 | -82.51045 | 34450 ft | 388 kts | 90° |
| 2026-05-04 08:12 | 39.50253 | -82.47783 | 34067 ft | 386 kts | 90° |
| 2026-05-04 08:12 | 39.50087 | -82.44509 | 33678 ft | 384 kts | 90° |
| 2026-05-04 08:12 | 39.49926 | -82.41399 | 33304 ft | 382 kts | 90° |
| 2026-05-04 08:13 | 39.49759 | -82.38162 | 32912 ft | 380 kts | 90° |
| 2026-05-04 08:13 | 39.49596 | -82.34964 | 32522 ft | 378 kts | 91° |
| 2026-05-04 08:13 | 39.49429 | -82.31727 | 32116 ft | 376 kts | 91° |
| 2026-05-04 08:13 | 39.49259 | -82.28542 | 31720 ft | 374 kts | 91° |
| 2026-05-04 08:14 | 39.49094 | -82.25425 | 31327 ft | 372 kts | 91° |
| 2026-05-04 08:14 | 39.48945 | -82.22591 | 30980 ft | 370 kts | 91° |
| 2026-05-04 08:14 | 39.48791 | -82.19701 | 30612 ft | 368 kts | 91° |
| 2026-05-04 08:16 | 39.47661 | -81.98867 | 28000 ft | 349 kts | 90° |
| 2026-05-04 08:16 | 39.47498 | -81.95913 | 27638 ft | 346 kts | 90° |
| 2026-05-04 08:16 | 39.47336 | -81.92955 | 27275 ft | 343 kts | 90° |
| 2026-05-04 08:17 | 39.47172 | -81.90056 | 26914 ft | 341 kts | 90° |
| 2026-05-04 08:17 | 39.47009 | -81.87155 | 26560 ft | 338 kts | 90° |
| 2026-05-04 08:17 | 39.46850 | -81.84271 | 26205 ft | 336 kts | 90° |
| 2026-05-04 08:17 | 39.46686 | -81.81395 | 25852 ft | 334 kts | 90° |
| 2026-05-04 08:19 | 39.45557 | -81.61725 | 23446 ft | 319 kts | 90° |
| 2026-05-04 08:19 | 39.45396 | -81.58963 | 23111 ft | 317 kts | 90° |
| 2026-05-04 08:20 | 39.45236 | -81.56227 | 22778 ft | 316 kts | 90° |
| 2026-05-04 08:20 | 39.45075 | -81.53503 | 22441 ft | 314 kts | 90° |
| 2026-05-04 08:20 | 39.44917 | -81.50796 | 22105 ft | 312 kts | 90° |
| 2026-05-04 08:20 | 39.44756 | -81.48097 | 21770 ft | 311 kts | 90° |
| 2026-05-04 08:21 | 39.44599 | -81.45431 | 21445 ft | 309 kts | 91° |
| 2026-05-04 08:21 | 39.44439 | -81.42786 | 21124 ft | 307 kts | 90° |
| 2026-05-04 08:21 | 39.44277 | -81.40094 | 20795 ft | 306 kts | 91° |
| 2026-05-04 08:21 | 39.44116 | -81.37432 | 20494 ft | 302 kts | 87° |
| 2026-05-04 08:22 | 39.44280 | -81.34853 | 20205 ft | 295 kts | 75° |
| 2026-05-04 08:22 | 39.44728 | -81.32368 | 19898 ft | 292 kts | 71° |
| 2026-05-04 08:24 | 39.47776 | -81.16109 | 17803 ft | 283 kts | 72° |
| 2026-05-04 08:24 | 39.48225 | -81.13683 | 17490 ft | 281 kts | 72° |
| 2026-05-04 08:24 | 39.48650 | -81.11385 | 17200 ft | 280 kts | 72° |
| 2026-05-04 08:24 | 39.49030 | -81.09336 | 16947 ft | 279 kts | 72° |
| 2026-05-04 08:25 | 39.49448 | -81.07089 | 16663 ft | 278 kts | 72° |
| 2026-05-04 08:25 | 39.49878 | -81.04762 | 16366 ft | 277 kts | 72° |
| 2026-05-04 08:25 | 39.50309 | -81.02426 | 16062 ft | 276 kts | 72° |
| 2026-05-04 08:25 | 39.50740 | -81.00088 | 15776 ft | 274 kts | 72° |
| 2026-05-04 08:26 | 39.51165 | -80.97787 | 15485 ft | 273 kts | 72° |